Terminal Aerodrome Forecast
Issued by NWS Pittsburgh, PA

Current Version | Previous Version | Text Only | Print | Product List | Glossary Off
Versions: 1 2 3 4 5 6 7 8 9 10 11 12 13 14 15 16 17 18 19 20 21 22 23 24 25 26 27 28 29

000
FTUS41 KPBZ 210500
TAFPIT
TAF
KPIT 210535Z 2106/2212 18005KT P6SM BKN070
     FM210800 VRB03KT 4SM BR SCT040
     FM211000 VRB03KT 2SM BR SCT002 SCT040
     FM211300 17005KT P6SM SCT040=

USA.gov is the U.S. government's official web portal to all federal, state and local government web resources and services.